Time;durP1;ratioP1;P1;durP2;ratioP2;P2;SDS_P1;SDS_P2;PMS_P1;PMS_P2;Temp;Humidity;BMP_temperature;BMP_pressure;BME280_temperature;BME280_humidity;BME280_pressure;Samples;Min_cycle;Max_cycle;Signal;HPM_P1;HPM_P2
2022/02/16 00:01:38;;;;;;;4.60;4.20;;;;;;;;;;5067871;28;24496;-56
2022/02/16 00:04:03;;;;;;;5.50;5.10;;;;;;;;;;5066061;28;24426;-57
2022/02/16 00:06:28;;;;;;;5.60;5.10;;;;;;;;;;5066792;28;24532;-58
2022/02/16 00:08:53;;;;;;;5.20;4.80;;;;;;;;;;5066745;28;24411;-58
2022/02/16 00:11:18;;;;;;;5.80;5.30;;;;;;;;;;5068019;28;24422;-57
2022/02/16 00:13:44;;;;;;;6.90;6.20;;;;;;;;;;5067140;28;25021;-57
2022/02/16 00:16:09;;;;;;;7.63;6.93;;;;;;;;;;5066910;28;24898;-57
2022/02/16 00:18:35;;;;;;;7.93;7.23;;;;;;;;;;5066662;28;24418;-55
2022/02/16 00:21:00;;;;;;;7.63;6.93;;;;;;;;;;5067402;28;25295;-56
2022/02/16 00:23:26;;;;;;;6.90;6.30;;;;;;;;;;5067518;28;24521;-57
2022/02/16 00:25:51;;;;;;;7.80;7.00;;;;;;;;;;5066409;28;24459;-57
2022/02/16 00:28:17;;;;;;;7.57;6.87;;;;;;;;;;5066324;28;24557;-57
2022/02/16 00:30:43;;;;;;;7.60;6.90;;;;;;;;;;5066238;28;24442;-57
2022/02/16 00:33:08;;;;;;;6.43;5.40;;;;;;;;;;5067056;28;24446;-57
2022/02/16 00:35:34;;;;;;;6.68;5.97;;;;;;;;;;5067007;28;24411;-57
2022/02/16 00:37:59;;;;;;;5.90;5.40;;;;;;;;;;5066533;28;24957;-58
2022/02/16 00:40:24;;;;;;;6.50;5.90;;;;;;;;;;5059964;28;24423;-58
2022/02/16 00:42:50;;;;;;;6.30;5.70;;;;;;;;;;5066422;28;24797;-57
2022/02/16 00:45:15;;;;;;;5.93;5.40;;;;;;;;;;5064083;28;24435;-57
2022/02/16 00:47:40;;;;;;;5.30;4.80;;;;;;;;;;5065664;28;24503;-57
2022/02/16 00:50:06;;;;;;;5.00;4.50;;;;;;;;;;5062599;28;24425;-57
2022/02/16 00:52:31;;;;;;;5.57;5.07;;;;;;;;;;5066814;28;24414;-58
2022/02/16 00:54:56;;;;;;;5.43;5.03;;;;;;;;;;5064158;28;24430;-57
2022/02/16 00:57:21;;;;;;;5.40;5.00;;;;;;;;;;5064805;28;24569;-57
2022/02/16 00:59:46;;;;;;;4.80;4.40;;;;;;;;;;5064041;28;24491;-57
2022/02/16 01:02:11;;;;;;;4.70;4.30;;;;;;;;;;5056829;28;24434;-57
2022/02/16 01:04:37;;;;;;;5.00;4.50;;;;;;;;;;5064946;28;24484;-57
2022/02/16 01:07:04;;;;;;;4.82;4.20;;;;;;;;;;5064626;28;24402;-57
2022/02/16 01:09:29;;;;;;;3.80;3.50;;;;;;;;;;5065355;28;24426;-57
2022/02/16 01:11:54;;;;;;;3.90;3.60;;;;;;;;;;5063327;28;24816;-57
2022/02/16 01:14:20;;;;;;;3.60;3.30;;;;;;;;;;5065169;28;24511;-58
2022/02/16 01:16:45;;;;;;;3.30;3.10;;;;;;;;;;5064530;28;24504;-58
2022/02/16 01:19:10;;;;;;;3.70;3.30;;;;;;;;;;5065030;28;24589;-58
2022/02/16 01:21:35;;;;;;;3.30;3.00;;;;;;;;;;5066166;28;24587;-58
2022/02/16 01:24:00;;;;;;;3.90;3.50;;;;;;;;;;5063004;28;24464;-58
2022/02/16 01:26:25;;;;;;;3.70;3.40;;;;;;;;;;5064289;28;24425;-57
2022/02/16 01:28:50;;;;;;;3.77;3.40;;;;;;;;;;5064573;28;24501;-58
2022/02/16 01:31:16;;;;;;;3.80;3.20;;;;;;;;;;5063315;28;24793;-58
2022/02/16 01:33:41;;;;;;;3.20;2.90;;;;;;;;;;5064482;28;24437;-57
2022/02/16 01:36:06;;;;;;;3.13;2.83;;;;;;;;;;5064203;28;24450;-58
2022/02/16 01:38:31;;;;;;;2.80;2.60;;;;;;;;;;5064230;28;24568;-57
2022/02/16 01:40:57;;;;;;;3.30;2.80;;;;;;;;;;5061947;28;24425;-57
2022/02/16 01:43:22;;;;;;;2.80;2.60;;;;;;;;;;5060606;28;24449;-54
2022/02/16 01:45:47;;;;;;;3.90;2.80;;;;;;;;;;5063561;28;24434;-57
2022/02/16 01:48:13;;;;;;;3.30;3.00;;;;;;;;;;5064325;28;25007;-58
2022/02/16 01:50:38;;;;;;;3.73;3.10;;;;;;;;;;5065300;28;24498;-55
2022/02/16 01:53:03;;;;;;;2.50;2.30;;;;;;;;;;5063717;28;25023;-57
2022/02/16 01:55:28;;;;;;;2.80;2.60;;;;;;;;;;5059920;28;24453;-57
2022/02/16 01:57:54;;;;;;;3.00;2.80;;;;;;;;;;5065041;28;24425;-55
2022/02/16 02:00:19;;;;;;;2.60;2.40;;;;;;;;;;5065443;28;24450;-55
2022/02/16 02:02:45;;;;;;;2.93;2.70;;;;;;;;;;5064540;28;24418;-55
2022/02/16 02:05:11;;;;;;;2.87;2.60;;;;;;;;;;5065786;28;24488;-57
2022/02/16 02:07:36;;;;;;;2.60;2.40;;;;;;;;;;5068048;28;24415;-57
2022/02/16 02:10:02;;;;;;;3.00;2.80;;;;;;;;;;5065708;28;24785;-57
2022/02/16 02:12:27;;;;;;;4.00;2.65;;;;;;;;;;5068475;28;24775;-57
2022/02/16 02:14:53;;;;;;;2.90;2.70;;;;;;;;;;5068156;28;24413;-58
2022/02/16 02:17:18;;;;;;;2.70;2.50;;;;;;;;;;5069698;28;24827;-58
2022/02/16 02:19:43;;;;;;;2.80;2.60;;;;;;;;;;5067426;28;24417;-57
2022/02/16 02:22:08;;;;;;;2.87;2.60;;;;;;;;;;5068040;28;24411;-57
2022/02/16 02:24:33;;;;;;;3.30;3.00;;;;;;;;;;5068425;28;24443;-55
2022/02/16 02:26:59;;;;;;;3.03;2.83;;;;;;;;;;5068694;28;24447;-55
2022/02/16 02:29:24;;;;;;;2.80;2.50;;;;;;;;;;5068852;28;25033;-55
2022/02/16 02:31:49;;;;;;;3.28;2.97;;;;;;;;;;5068483;28;24426;-55
2022/02/16 02:34:15;;;;;;;3.88;2.80;;;;;;;;;;5066812;28;24860;-55
2022/02/16 02:36:40;;;;;;;3.15;2.60;;;;;;;;;;5069121;28;24813;-55
2022/02/16 02:39:05;;;;;;;2.80;2.57;;;;;;;;;;5065225;28;24417;-55
2022/02/16 02:41:30;;;;;;;3.47;3.17;;;;;;;;;;5066610;28;24869;-56
2022/02/16 02:43:56;;;;;;;3.00;2.70;;;;;;;;;;5068912;28;24445;-56
2022/02/16 02:46:21;;;;;;;2.87;2.67;;;;;;;;;;5068662;28;24531;-55
2022/02/16 02:48:46;;;;;;;2.60;2.40;;;;;;;;;;5066141;28;24461;-55
2022/02/16 02:51:11;;;;;;;3.30;3.00;;;;;;;;;;5064057;28;24414;-56
2022/02/16 02:53:40;;;;;;;3.20;3.00;;;;;;;;;;5068023;28;24480;-55
2022/02/16 02:56:05;;;;;;;2.97;2.78;;;;;;;;;;5068857;28;24446;-56
2022/02/16 02:58:30;;;;;;;3.97;3.53;;;;;;;;;;5069051;28;24454;-56
2022/02/16 03:00:56;;;;;;;4.20;3.80;;;;;;;;;;5068016;28;24406;-56
2022/02/16 03:03:21;;;;;;;3.37;2.90;;;;;;;;;;5063719;28;25040;-56
2022/02/16 03:05:46;;;;;;;3.20;3.00;;;;;;;;;;5057619;28;24430;-56
2022/02/16 03:08:11;;;;;;;3.72;3.42;;;;;;;;;;5068915;28;24783;-56
2022/02/16 03:10:37;;;;;;;4.17;3.50;;;;;;;;;;5068804;28;24403;-56
2022/02/16 03:13:02;;;;;;;3.50;3.20;;;;;;;;;;5067302;28;24430;-56
2022/02/16 03:15:27;;;;;;;4.10;3.80;;;;;;;;;;5058266;28;24498;-56
2022/02/16 03:17:52;;;;;;;3.78;3.47;;;;;;;;;;5064708;28;25039;-57
2022/02/16 03:20:17;;;;;;;4.30;3.90;;;;;;;;;;5056665;28;24424;-57
2022/02/16 03:22:42;;;;;;;4.22;3.83;;;;;;;;;;5067923;28;24454;-56
2022/02/16 03:25:08;;;;;;;3.50;3.20;;;;;;;;;;5063698;28;24895;-56
2022/02/16 03:27:34;;;;;;;3.60;3.30;;;;;;;;;;5067955;28;24448;-56
2022/02/16 03:30:00;;;;;;;4.00;3.70;;;;;;;;;;5067889;28;24422;-56
2022/02/16 03:32:25;;;;;;;3.80;3.50;;;;;;;;;;5068048;28;24464;-57
2022/02/16 03:34:50;;;;;;;3.85;3.55;;;;;;;;;;5068072;28;24427;-56
2022/02/16 03:37:15;;;;;;;4.20;3.80;;;;;;;;;;5065615;28;24494;-56
2022/02/16 03:39:40;;;;;;;5.53;4.10;;;;;;;;;;5068138;28;24437;-56
2022/02/16 03:42:06;;;;;;;4.13;3.77;;;;;;;;;;5067865;28;24918;-56
2022/02/16 03:44:31;;;;;;;4.67;3.70;;;;;;;;;;5066400;28;24443;-56
2022/02/16 03:46:56;;;;;;;4.00;3.70;;;;;;;;;;5068019;28;24484;-57
2022/02/16 03:49:22;;;;;;;4.13;3.83;;;;;;;;;;5068258;28;24994;-56
2022/02/16 03:51:47;;;;;;;4.07;3.78;;;;;;;;;;5066188;28;24506;-57
2022/02/16 03:54:12;;;;;;;3.83;3.40;;;;;;;;;;5064965;28;24433;-56
2022/02/16 03:56:37;;;;;;;4.50;4.10;;;;;;;;;;5066699;28;24590;-56
2022/02/16 03:59:03;;;;;;;4.75;4.35;;;;;;;;;;5067663;28;25157;-56
2022/02/16 04:01:28;;;;;;;5.20;4.43;;;;;;;;;;5067323;28;24823;-56
2022/02/16 04:03:53;;;;;;;4.77;4.37;;;;;;;;;;5067518;28;24418;-56
2022/02/16 04:06:19;;;;;;;4.97;4.57;;;;;;;;;;5067131;28;25077;-57
2022/02/16 04:08:44;;;;;;;5.50;5.00;;;;;;;;;;5062841;28;24430;-56
2022/02/16 04:11:09;;;;;;;5.85;5.35;;;;;;;;;;5068097;28;24441;-57
2022/02/16 04:13:35;;;;;;;5.70;5.10;;;;;;;;;;5066879;28;24407;-57
2022/02/16 04:16:00;;;;;;;4.90;4.50;;;;;;;;;;5067015;28;24414;-57
2022/02/16 04:18:25;;;;;;;5.30;4.80;;;;;;;;;;5061979;28;24553;-57
2022/02/16 04:20:50;;;;;;;5.53;4.93;;;;;;;;;;5067127;28;24484;-57
2022/02/16 04:23:16;;;;;;;6.00;5.50;;;;;;;;;;5067011;28;24427;-57
2022/02/16 04:25:41;;;;;;;6.10;5.60;;;;;;;;;;5066609;28;24431;-57
2022/02/16 04:28:06;;;;;;;6.00;5.50;;;;;;;;;;5066742;28;24414;-57
2022/02/16 04:30:32;;;;;;;5.87;5.47;;;;;;;;;;5067346;28;24829;-56
2022/02/16 04:32:57;;;;;;;5.23;4.83;;;;;;;;;;5065303;28;25162;-56
2022/02/16 04:35:23;;;;;;;5.82;5.43;;;;;;;;;;5060338;28;25035;-56
2022/02/16 04:37:48;;;;;;;7.63;6.97;;;;;;;;;;5066677;28;24427;-56
2022/02/16 04:40:15;;;;;;;7.83;7.23;;;;;;;;;;5066001;28;24546;-57
2022/02/16 04:42:40;;;;;;;7.50;6.80;;;;;;;;;;5066889;28;24418;-57
2022/02/16 04:45:05;;;;;;;7.03;6.53;;;;;;;;;;5066390;28;24442;-57
2022/02/16 04:47:30;;;;;;;7.70;6.90;;;;;;;;;;5066276;28;24766;-57
2022/02/16 04:49:56;;;;;;;6.32;5.82;;;;;;;;;;5066032;28;24494;-57
2022/02/16 04:52:21;;;;;;;6.20;5.70;;;;;;;;;;5060620;28;24414;-57
2022/02/16 04:54:46;;;;;;;7.20;6.60;;;;;;;;;;5067904;28;24941;-57
2022/02/16 04:57:11;;;;;;;7.17;6.57;;;;;;;;;;5071581;28;24905;-57
2022/02/16 04:59:36;;;;;;;7.97;7.27;;;;;;;;;;5067220;28;24399;-57
2022/02/16 05:02:01;;;;;;;7.24;6.74;;;;;;;;;;5065417;28;24936;-57
2022/02/16 05:04:27;;;;;;;6.80;6.23;;;;;;;;;;5066813;28;24399;-57
2022/02/16 05:06:52;;;;;;;9.35;8.65;;;;;;;;;;5066085;28;24445;-57
2022/02/16 05:09:17;;;;;;;8.20;7.50;;;;;;;;;;5066680;28;24423;-58
2022/02/16 05:11:42;;;;;;;7.72;7.13;;;;;;;;;;5065607;28;24414;-57
2022/02/16 05:14:07;;;;;;;6.90;6.40;;;;;;;;;;5066073;28;24411;-57
2022/02/16 05:16:32;;;;;;;6.90;6.30;;;;;;;;;;5065963;28;25295;-58
2022/02/16 05:18:59;;;;;;;7.65;6.95;;;;;;;;;;5066406;28;25023;-58
2022/02/16 05:21:24;;;;;;;7.70;7.10;;;;;;;;;;5065067;28;24558;-58
2022/02/16 05:23:49;;;;;;;8.20;7.40;;;;;;;;;;5066042;28;25051;-57
2022/02/16 05:26:15;;;;;;;7.65;6.95;;;;;;;;;;5065360;28;24531;-59
2022/02/16 05:28:40;;;;;;;7.53;6.83;;;;;;;;;;5065959;28;24465;-58
2022/02/16 05:31:05;;;;;;;7.20;6.60;;;;;;;;;;5064874;28;24415;-57
2022/02/16 05:33:31;;;;;;;8.03;7.20;;;;;;;;;;5062598;28;24415;-60
2022/02/16 05:35:56;;;;;;;7.20;6.60;;;;;;;;;;5060384;28;24480;-57
2022/02/16 05:38:21;;;;;;;8.73;7.63;;;;;;;;;;5065879;28;24828;-57
2022/02/16 05:40:47;;;;;;;7.07;6.50;;;;;;;;;;5066787;28;24454;-57
2022/02/16 05:43:13;;;;;;;7.00;6.40;;;;;;;;;;5061930;28;24442;-57
2022/02/16 05:45:42;;;;;;;6.33;5.83;;;;;;;;;;5063574;28;24453;-57
2022/02/16 05:48:07;;;;;;;7.00;6.40;;;;;;;;;;5066147;28;24410;-57
2022/02/16 05:50:32;;;;;;;7.35;6.78;;;;;;;;;;5065660;28;24411;-58
2022/02/16 05:52:57;;;;;;;7.30;6.70;;;;;;;;;;5064673;28;24522;-57
2022/02/16 05:55:23;;;;;;;7.70;7.10;;;;;;;;;;5065334;28;24972;-57
2022/02/16 05:57:48;;;;;;;7.32;6.72;;;;;;;;;;5058044;28;24484;-57
2022/02/16 06:00:14;;;;;;;7.57;6.97;;;;;;;;;;5064831;28;25045;-57
2022/02/16 06:02:40;;;;;;;7.90;7.20;;;;;;;;;;5062578;28;24476;-57
2022/02/16 06:05:05;;;;;;;8.23;7.53;;;;;;;;;;5058619;28;24476;-57
2022/02/16 06:07:30;;;;;;;7.70;6.90;;;;;;;;;;5062677;28;24521;-57
2022/02/16 06:09:55;;;;;;;8.90;7.45;;;;;;;;;;5058638;28;25014;-57
2022/02/16 06:12:20;;;;;;;7.97;7.28;;;;;;;;;;5061327;28;24426;-57
2022/02/16 06:14:46;;;;;;;7.95;7.03;;;;;;;;;;5063035;28;24442;-60
2022/02/16 06:17:11;;;;;;;8.30;7.60;;;;;;;;;;5061249;28;24957;-58
2022/02/16 06:19:36;;;;;;;8.13;7.53;;;;;;;;;;5062281;28;24421;-57
2022/02/16 06:22:01;;;;;;;7.50;6.90;;;;;;;;;;5061374;28;24426;-57
2022/02/16 06:24:26;;;;;;;8.70;7.80;;;;;;;;;;5055764;28;25289;-57
2022/02/16 06:26:51;;;;;;;8.17;7.47;;;;;;;;;;5061551;28;24522;-57
2022/02/16 06:29:17;;;;;;;8.43;7.70;;;;;;;;;;5062424;28;25001;-57
2022/02/16 06:31:42;;;;;;;7.35;6.75;;;;;;;;;;5061438;28;24442;-57
2022/02/16 06:34:07;;;;;;;7.43;6.73;;;;;;;;;;5057526;28;24468;-57
2022/02/16 06:36:32;;;;;;;7.03;6.40;;;;;;;;;;5059356;28;24406;-55
2022/02/16 06:38:57;;;;;;;6.50;5.90;;;;;;;;;;5060517;28;24438;-55
2022/02/16 06:41:22;;;;;;;6.15;5.63;;;;;;;;;;5061771;28;24425;-54
2022/02/16 06:43:48;;;;;;;5.50;5.00;;;;;;;;;;5051418;28;24411;-55
2022/02/16 06:46:13;;;;;;;4.83;4.50;;;;;;;;;;5052927;28;24568;-56
2022/02/16 06:48:38;;;;;;;4.90;4.40;;;;;;;;;;5061836;28;25001;-56
2022/02/16 06:51:03;;;;;;;3.70;3.40;;;;;;;;;;5060195;28;24485;-58
2022/02/16 06:53:28;;;;;;;2.90;2.70;;;;;;;;;;5051055;28;24987;-57
2022/02/16 06:55:54;;;;;;;2.80;2.60;;;;;;;;;;5047187;28;25049;-56
2022/02/16 06:58:19;;;;;;;3.00;2.80;;;;;;;;;;5060939;28;24468;-58
2022/02/16 07:00:44;;;;;;;2.90;2.70;;;;;;;;;;5065291;28;24433;-57
2022/02/16 07:03:09;;;;;;;3.10;2.90;;;;;;;;;;5062002;28;24837;-56
2022/02/16 07:05:35;;;;;;;2.90;2.70;;;;;;;;;;5059882;28;24422;-57
2022/02/16 07:08:00;;;;;;;3.30;3.00;;;;;;;;;;5063015;28;25013;-56
2022/02/16 07:10:25;;;;;;;2.53;2.43;;;;;;;;;;5063383;28;24518;-56
2022/02/16 07:12:51;;;;;;;2.90;2.70;;;;;;;;;;5060543;28;24446;-56
2022/02/16 07:15:16;;;;;;;2.97;2.70;;;;;;;;;;5059570;28;24943;-56
2022/02/16 07:17:41;;;;;;;2.77;2.57;;;;;;;;;;5050515;28;24415;-56
2022/02/16 07:20:08;;;;;;;3.30;2.53;;;;;;;;;;5049139;28;24978;-57
2022/02/16 07:22:36;;;;;;;2.60;2.40;;;;;;;;;;5049303;28;24970;-56
2022/02/16 07:25:02;;;;;;;2.92;2.50;;;;;;;;;;5050284;28;24506;-57
2022/02/16 07:27:27;;;;;;;5.15;4.65;;;;;;;;;;5069073;28;24828;-57
2022/02/16 07:29:52;;;;;;;5.70;5.20;;;;;;;;;;5069391;28;24394;-55
2022/02/16 07:32:18;;;;;;;5.57;5.10;;;;;;;;;;5068724;28;24390;-57
2022/02/16 07:34:43;;;;;;;6.00;5.50;;;;;;;;;;5060173;28;24421;-57
2022/02/16 07:37:08;;;;;;;5.72;5.13;;;;;;;;;;5063800;28;24952;-57
2022/02/16 07:39:33;;;;;;;7.07;5.70;;;;;;;;;;5065115;28;24430;-56
2022/02/16 07:42:02;;;;;;;5.97;5.47;;;;;;;;;;5066993;28;24447;-57
2022/02/16 07:44:27;;;;;;;7.60;5.40;;;;;;;;;;5066043;28;24426;-56
2022/02/16 07:46:52;;;;;;;5.15;4.65;;;;;;;;;;5064320;28;24438;-57
2022/02/16 07:49:17;;;;;;;4.23;3.93;;;;;;;;;;5056364;28;24557;-55
2022/02/16 07:51:42;;;;;;;3.10;2.90;;;;;;;;;;5059969;28;24414;-55
2022/02/16 07:54:08;;;;;;;2.28;2.17;;;;;;;;;;5064094;28;24418;-57
2022/02/16 07:56:35;;;;;;;2.60;1.88;;;;;;;;;;5063496;28;24458;-56
2022/02/16 07:59:00;;;;;;;1.60;1.50;;;;;;;;;;5063834;28;24418;-56
2022/02/16 08:01:25;;;;;;;1.60;1.50;;;;;;;;;;5059709;28;24427;-56
2022/02/16 08:03:50;;;;;;;1.40;1.30;;;;;;;;;;5064103;28;24491;-56
2022/02/16 08:06:17;;;;;;;1.40;1.30;;;;;;;;;;5067462;28;24478;-56
2022/02/16 08:08:42;;;;;;;1.48;1.38;;;;;;;;;;5066878;28;24522;-57
2022/02/16 08:11:07;;;;;;;1.92;1.50;;;;;;;;;;5067246;28;24395;-56
2022/02/16 08:13:32;;;;;;;1.40;1.30;;;;;;;;;;5064374;28;24418;-56
2022/02/16 08:15:57;;;;;;;1.40;1.20;;;;;;;;;;5066074;28;24486;-56
2022/02/16 08:18:24;;;;;;;1.70;1.30;;;;;;;;;;5065833;28;24415;-56
2022/02/16 08:20:49;;;;;;;1.50;1.10;;;;;;;;;;5064224;28;24464;-56
2022/02/16 08:23:14;;;;;;;1.65;1.20;;;;;;;;;;5066594;28;24417;-56
2022/02/16 08:25:39;;;;;;;1.30;1.20;;;;;;;;;;5065980;28;24522;-56
2022/02/16 08:28:05;;;;;;;1.30;1.20;;;;;;;;;;5065101;28;24399;-57
2022/02/16 08:30:30;;;;;;;1.00;1.00;;;;;;;;;;5062757;28;24429;-56
2022/02/16 08:32:56;;;;;;;0.83;0.83;;;;;;;;;;5062369;28;24403;-57
2022/02/16 08:35:21;;;;;;;1.00;1.00;;;;;;;;;;5065419;28;24410;-57
2022/02/16 08:37:46;;;;;;;1.00;1.00;;;;;;;;;;5064943;28;25010;-55
2022/02/16 08:40:12;;;;;;;0.80;0.80;;;;;;;;;;5066373;28;25171;-56
2022/02/16 08:42:37;;;;;;;1.00;0.90;;;;;;;;;;5047691;28;24453;-56
2022/02/16 08:45:03;;;;;;;1.10;1.10;;;;;;;;;;5051262;28;24802;-57
2022/02/16 08:47:28;;;;;;;1.10;1.00;;;;;;;;;;5067487;28;24434;-57
2022/02/16 08:49:53;;;;;;;0.90;0.90;;;;;;;;;;5064030;28;24397;-57
2022/02/16 08:52:19;;;;;;;0.90;0.90;;;;;;;;;;5067080;28;24391;-57
2022/02/16 08:54:44;;;;;;;1.10;1.00;;;;;;;;;;5065830;28;24468;-59
2022/02/16 08:57:09;;;;;;;0.93;0.83;;;;;;;;;;5047706;28;24447;-57
2022/02/16 08:59:34;;;;;;;0.80;0.80;;;;;;;;;;5050184;28;24591;-56
2022/02/16 09:01:59;;;;;;;1.30;1.20;;;;;;;;;;5065216;28;24447;-57
2022/02/16 09:04:25;;;;;;;1.10;1.00;;;;;;;;;;5067252;28;24390;-57
2022/02/16 09:09:37;;;;;;;1.90;1.10;;;;;;;;;;5049540;28;24426;-56
2022/02/16 09:12:03;;;;;;;1.30;1.20;;;;;;;;;;5066984;28;24949;-56
2022/02/16 09:14:28;;;;;;;1.30;1.20;;;;;;;;;;5067348;28;24773;-57
2022/02/16 09:16:53;;;;;;;1.10;1.10;;;;;;;;;;5066232;28;25077;-58
2022/02/16 09:19:18;;;;;;;1.00;0.90;;;;;;;;;;5059797;28;24426;-57
2022/02/16 09:21:44;;;;;;;1.10;0.90;;;;;;;;;;5053218;28;24641;-57
2022/02/16 09:24:09;;;;;;;1.10;1.00;;;;;;;;;;5046817;28;24407;-57
2022/02/16 09:26:34;;;;;;;1.67;0.98;;;;;;;;;;5047045;28;24411;-57
2022/02/16 09:28:59;;;;;;;1.27;1.17;;;;;;;;;;5047015;28;24396;-56
2022/02/16 09:31:24;;;;;;;1.40;1.00;;;;;;;;;;5058274;28;25032;-57
2022/02/16 09:33:51;;;;;;;0.90;0.90;;;;;;;;;;5054911;28;24506;-57
2022/02/16 09:36:16;;;;;;;1.30;0.80;;;;;;;;;;5044366;28;24391;-56
2022/02/16 09:38:41;;;;;;;0.93;0.90;;;;;;;;;;5046525;28;24801;-56
2022/02/16 09:41:07;;;;;;;1.48;0.82;;;;;;;;;;5049906;28;24406;-56
2022/02/16 09:43:32;;;;;;;0.97;0.97;;;;;;;;;;5066489;28;24480;-57
2022/02/16 09:45:58;;;;;;;1.58;1.00;;;;;;;;;;5066381;28;24453;-57
2022/02/16 09:48:24;;;;;;;1.20;0.80;;;;;;;;;;5066119;28;24983;-57
2022/02/16 09:50:49;;;;;;;0.95;0.80;;;;;;;;;;5066833;28;24395;-55
2022/02/16 09:53:14;;;;;;;0.95;0.90;;;;;;;;;;5066000;28;24503;-56
2022/02/16 09:55:39;;;;;;;1.33;0.70;;;;;;;;;;5066817;28;24811;-56
2022/02/16 09:58:05;;;;;;;1.20;0.90;;;;;;;;;;5066390;28;24872;-56
2022/02/16 10:00:30;;;;;;;1.50;1.00;;;;;;;;;;5066240;28;24506;-58
2022/02/16 10:02:55;;;;;;;1.10;0.80;;;;;;;;;;5066380;28;24418;-57
2022/02/16 10:05:20;;;;;;;0.90;0.90;;;;;;;;;;5066201;28;24434;-58
2022/02/16 10:07:52;;;;;;;0.70;0.70;;;;;;;;;;5066357;28;24406;-57
2022/02/16 10:10:19;;;;;;;1.17;0.90;;;;;;;;;;5066588;28;24398;-57
2022/02/16 10:12:47;;;;;;;1.60;1.10;;;;;;;;;;5066363;28;24411;-56
2022/02/16 10:15:14;;;;;;;1.30;1.00;;;;;;;;;;5066443;28;24401;-57
2022/02/16 10:17:39;;;;;;;1.20;1.10;;;;;;;;;;5065938;28;24414;-59
2022/02/16 10:20:06;;;;;;;1.80;1.10;;;;;;;;;;5066143;28;24387;-58
2022/02/16 10:22:42;;;;;;;0.80;0.80;;;;;;;;;;5065933;28;24530;-56
2022/02/16 10:25:10;;;;;;;1.43;0.90;;;;;;;;;;5066075;28;25029;-56
2022/02/16 10:27:36;;;;;;;0.90;0.80;;;;;;;;;;5066469;28;24402;-56
2022/02/16 10:30:12;;;;;;;0.80;0.80;;;;;;;;;;5070131;28;24415;-57
2022/02/16 10:32:37;;;;;;;1.35;0.80;;;;;;;;;;5069712;28;24414;-57
2022/02/16 10:35:03;;;;;;;0.90;0.70;;;;;;;;;;5069956;28;24758;-57
2022/02/16 10:37:32;;;;;;;1.50;0.70;;;;;;;;;;5070059;28;24455;-56
2022/02/16 10:39:58;;;;;;;1.13;0.80;;;;;;;;;;5070281;28;24387;-56
2022/02/16 10:42:23;;;;;;;1.00;0.90;;;;;;;;;;5053737;28;24431;-56
2022/02/16 10:45:02;;;;;;;0.80;0.80;;;;;;;;;;5067481;28;24481;-57
2022/02/16 10:47:27;;;;;;;1.80;0.80;;;;;;;;;;5069210;28;24411;-57
2022/02/16 10:49:56;;;;;;;2.63;0.80;;;;;;;;;;5069326;28;24406;-57
2022/02/16 10:52:21;;;;;;;1.43;0.80;;;;;;;;;;5069112;28;24391;-57
2022/02/16 10:54:58;;;;;;;1.10;0.73;;;;;;;;;;5069157;28;24410;-57
2022/02/16 10:57:23;;;;;;;1.33;0.67;;;;;;;;;;5069085;28;24386;-57
2022/02/16 10:59:48;;;;;;;0.90;0.80;;;;;;;;;;5067737;28;24382;-58
2022/02/16 11:02:14;;;;;;;0.83;0.83;;;;;;;;;;5066855;28;24538;-58
2022/02/16 11:04:40;;;;;;;1.02;0.93;;;;;;;;;;5066219;28;24986;-57
2022/02/16 11:07:06;;;;;;;0.60;0.60;;;;;;;;;;5066704;28;24508;-58
2022/02/16 11:09:38;;;;;;;0.80;0.80;;;;;;;;;;5068674;28;24986;-58
2022/02/16 11:12:03;;;;;;;1.10;1.00;;;;;;;;;;5069065;28;24395;-58
2022/02/16 11:14:29;;;;;;;1.00;0.70;;;;;;;;;;5063191;28;24427;-57
2022/02/16 11:16:55;;;;;;;0.70;0.70;;;;;;;;;;5061649;28;25248;-58
2022/02/16 11:19:35;;;;;;;0.80;0.80;;;;;;;;;;5068151;28;25282;-58
2022/02/16 11:22:14;;;;;;;0.90;0.90;;;;;;;;;;5068661;28;25021;-58
2022/02/16 11:24:43;;;;;;;0.80;0.80;;;;;;;;;;5066755;28;24986;-58
2022/02/16 11:27:20;;;;;;;0.82;0.80;;;;;;;;;;5069111;28;24415;-57
2022/02/16 11:29:45;;;;;;;0.80;0.80;;;;;;;;;;5067015;28;24419;-57
2022/02/16 11:32:18;;;;;;;0.87;0.80;;;;;;;;;;5068581;28;24402;-57
2022/02/16 11:34:44;;;;;;;0.80;0.80;;;;;;;;;;5067083;28;24442;-57
2022/02/16 11:37:09;;;;;;;1.00;1.00;;;;;;;;;;5066618;28;24453;-57
2022/02/16 11:40:00;;;;;;;0.90;0.90;;;;;;;;;;5066396;28;24427;-57
2022/02/16 11:42:44;;;;;;;1.30;0.88;;;;;;;;;;5064132;28;25039;-57
2022/02/16 11:45:10;;;;;;;1.30;1.10;;;;;;;;;;5066348;28;24552;-57
2022/02/16 11:47:35;;;;;;;1.50;1.40;;;;;;;;;;5065597;28;24864;-58
2022/02/16 11:50:10;;;;;;;0.90;0.90;;;;;;;;;;5066368;28;25120;-57
2022/02/16 11:52:37;;;;;;;0.90;0.90;;;;;;;;;;5067289;28;24749;-57
2022/02/16 11:55:03;;;;;;;0.90;0.90;;;;;;;;;;5068320;28;24430;-57
2022/02/16 11:57:36;;;;;;;0.80;0.80;;;;;;;;;;5066714;28;24445;-58
2022/02/16 12:00:20;;;;;;;0.90;0.90;;;;;;;;;;5067593;28;24785;-58
2022/02/16 12:03:06;;;;;;;1.07;0.97;;;;;;;;;;5067045;28;24591;-57
2022/02/16 12:05:55;;;;;;;1.00;1.00;;;;;;;;;;5066385;28;24414;-57
2022/02/16 12:08:29;;;;;;;1.20;1.00;;;;;;;;;;5055089;28;24419;-57
2022/02/16 12:11:25;;;;;;;0.80;0.80;;;;;;;;;;5057673;28;24957;-57
2022/02/16 12:13:58;;;;;;;0.70;0.70;;;;;;;;;;5066418;28;25073;-57
2022/02/16 12:16:25;;;;;;;1.10;0.90;;;;;;;;;;5065582;28;24463;-57
2022/02/16 12:18:51;;;;;;;0.80;0.80;;;;;;;;;;5066817;28;24429;-56
2022/02/16 12:21:23;;;;;;;0.90;0.80;;;;;;;;;;5067594;28;24785;-56
2022/02/16 12:23:52;;;;;;;0.75;0.70;;;;;;;;;;5068015;28;24392;-57
2022/02/16 12:26:18;;;;;;;0.85;0.80;;;;;;;;;;5067056;28;24458;-57
2022/02/16 12:28:51;;;;;;;1.60;1.00;;;;;;;;;;5067503;28;25027;-57
2022/02/16 12:31:17;;;;;;;0.80;0.70;;;;;;;;;;5067722;28;24456;-57
2022/02/16 12:33:42;;;;;;;0.80;0.80;;;;;;;;;;5067936;28;24399;-57
2022/02/16 12:36:07;;;;;;;0.80;0.80;;;;;;;;;;5065320;28;25123;-57
2022/02/16 12:38:33;;;;;;;0.70;0.70;;;;;;;;;;5068841;28;24411;-57
2022/02/16 12:41:05;;;;;;;1.30;0.90;;;;;;;;;;5066496;28;24451;-57
2022/02/16 12:43:31;;;;;;;0.70;0.63;;;;;;;;;;5060935;28;24821;-58
2022/02/16 12:45:56;;;;;;;1.10;0.73;;;;;;;;;;5059664;28;25020;-57
2022/02/16 12:48:21;;;;;;;1.20;0.90;;;;;;;;;;5071807;28;24468;-57
2022/02/16 12:50:46;;;;;;;0.80;0.80;;;;;;;;;;5070572;28;24434;-57
2022/02/16 12:53:13;;;;;;;0.80;0.80;;;;;;;;;;5066964;28;24498;-58
2022/02/16 12:55:39;;;;;;;0.98;0.95;;;;;;;;;;5066529;28;24426;-58
2022/02/16 12:58:04;;;;;;;0.70;0.70;;;;;;;;;;5066145;28;24438;-58
2022/02/16 13:00:47;;;;;;;0.70;0.70;;;;;;;;;;5074529;28;24410;-57
2022/02/16 13:03:12;;;;;;;0.80;0.80;;;;;;;;;;5063211;28;24426;-57
2022/02/16 13:05:41;;;;;;;0.83;0.70;;;;;;;;;;5062375;28;24515;-57
2022/02/16 13:08:07;;;;;;;0.80;0.70;;;;;;;;;;5066557;28;24667;-58
2022/02/16 13:10:34;;;;;;;0.95;0.80;;;;;;;;;;5067463;28;24463;-58
2022/02/16 13:13:12;;;;;;;0.77;0.77;;;;;;;;;;5071095;28;24425;-58
2022/02/16 13:15:37;;;;;;;0.80;0.75;;;;;;;;;;5062580;28;24568;-58
2022/02/16 13:18:03;;;;;;;0.70;0.70;;;;;;;;;;5054657;28;24407;-57
2022/02/16 13:20:29;;;;;;;1.20;0.70;;;;;;;;;;5063557;28;24461;-57
2022/02/16 13:23:02;;;;;;;0.80;0.70;;;;;;;;;;5066298;28;24937;-58
2022/02/16 13:25:32;;;;;;;0.80;0.70;;;;;;;;;;5066060;28;24415;-57
2022/02/16 13:28:10;;;;;;;0.70;0.70;;;;;;;;;;5066254;28;24766;-57
2022/02/16 13:30:35;;;;;;;0.70;0.70;;;;;;;;;;5064812;28;24457;-58
2022/02/16 13:33:12;;;;;;;0.57;0.52;;;;;;;;;;5066388;28;24441;-57
2022/02/16 13:35:37;;;;;;;0.90;0.60;;;;;;;;;;5065830;28;25033;-58
2022/02/16 13:38:03;;;;;;;0.50;0.50;;;;;;;;;;5065302;28;24510;-58
2022/02/16 13:40:30;;;;;;;1.40;0.80;;;;;;;;;;5064562;28;24414;-58
2022/02/16 13:42:57;;;;;;;0.80;0.70;;;;;;;;;;5066563;28;24402;-58
2022/02/16 13:45:27;;;;;;;0.60;0.60;;;;;;;;;;5066126;28;24518;-57
2022/02/16 13:47:52;;;;;;;0.67;0.67;;;;;;;;;;5066652;28;24378;-58
2022/02/16 13:50:37;;;;;;;0.50;0.50;;;;;;;;;;5066006;28;24983;-57
2022/02/16 13:53:04;;;;;;;0.60;0.60;;;;;;;;;;5065870;28;24436;-57
2022/02/16 13:55:41;;;;;;;0.60;0.60;;;;;;;;;;5066485;28;24395;-57
2022/02/16 13:58:07;;;;;;;0.50;0.50;;;;;;;;;;5066589;28;25186;-58
2022/02/16 14:00:32;;;;;;;0.70;0.70;;;;;;;;;;5066065;28;24414;-56
2022/02/16 14:03:04;;;;;;;0.70;0.60;;;;;;;;;;5069456;28;24395;-56
2022/02/16 14:05:29;;;;;;;0.90;0.60;;;;;;;;;;5067870;28;24612;-56
2022/02/16 14:07:54;;;;;;;0.60;0.50;;;;;;;;;;5070915;28;24921;-57
2022/02/16 14:10:19;;;;;;;1.00;0.90;;;;;;;;;;5069871;28;24944;-56
2022/02/16 14:12:44;;;;;;;0.70;0.70;;;;;;;;;;5069672;28;24956;-57
2022/02/16 14:15:09;;;;;;;0.70;0.70;;;;;;;;;;5069676;28;25015;-58
2022/02/16 14:17:35;;;;;;;0.70;0.50;;;;;;;;;;5067990;28;24415;-57
2022/02/16 14:20:00;;;;;;;0.50;0.50;;;;;;;;;;5069311;28;24508;-56
2022/02/16 14:22:25;;;;;;;0.50;0.50;;;;;;;;;;5067932;28;24437;-57
2022/02/16 14:24:50;;;;;;;0.60;0.50;;;;;;;;;;5058396;28;24979;-57
2022/02/16 14:27:16;;;;;;;0.50;0.50;;;;;;;;;;5059692;28;24540;-58
2022/02/16 14:29:43;;;;;;;0.67;0.63;;;;;;;;;;5068649;28;24911;-57
2022/02/16 14:32:10;;;;;;;0.85;0.60;;;;;;;;;;5068551;28;24414;-57
2022/02/16 14:34:36;;;;;;;1.10;0.50;;;;;;;;;;5068356;28;24436;-58
2022/02/16 14:37:01;;;;;;;0.70;0.68;;;;;;;;;;5069111;28;24422;-56
2022/02/16 14:39:26;;;;;;;0.80;0.70;;;;;;;;;;5068035;28;24425;-57
2022/02/16 14:41:52;;;;;;;0.70;0.57;;;;;;;;;;5068119;28;24421;-57